createdAt,value
2023-02-16T00:00:27.142Z,129.53
2023-02-16T00:03:18.035Z,122.03
2023-02-16T00:05:51.829Z,128.90
2023-02-16T00:08:20.817Z,131.63
2023-02-16T00:11:10.705Z,119.63
2023-02-16T00:13:49.247Z,129.53
2023-02-16T00:16:21.129Z,117.97
2023-02-16T00:18:51.493Z,110.07
2023-02-16T00:21:23.324Z,120.50
2023-02-16T00:23:52.582Z,119.00
2023-02-16T00:26:26.282Z,114.77
2023-02-16T00:28:58.825Z,130.23
2023-02-16T00:31:31.703Z,116.80
2023-02-16T00:34:23.830Z,116.73
2023-02-16T00:36:57.041Z,117.67
2023-02-16T00:39:26.727Z,115.60
2023-02-16T00:41:57.811Z,115.10
2023-02-16T00:44:33.551Z,115.90
2023-02-16T00:47:17.109Z,111.87
2023-02-16T00:49:50.501Z,109.73
2023-02-16T00:52:31.569Z,113.50
2023-02-16T00:55:05.283Z,112.50
2023-02-16T00:57:38.617Z,111.08
2023-02-16T01:00:15.144Z,115.40
2023-02-16T01:02:45.859Z,115.37
2023-02-16T01:05:17.004Z,108.70
2023-02-16T01:08:04.075Z,117.37
2023-02-16T01:10:55.288Z,103.93
2023-02-16T01:13:26.382Z,103.83
2023-02-16T01:15:58.697Z,109.33
2023-02-16T01:18:31.317Z,109.15
2023-02-16T01:21:00.466Z,108.10
2023-02-16T01:23:32.432Z,111.70
2023-02-16T01:26:03.048Z,107.50
2023-02-16T01:28:36.119Z,105.93
2023-02-16T01:31:06.836Z,99.07
2023-02-16T01:33:36.127Z,104.17
2023-02-16T01:36:07.210Z,105.00
2023-02-16T01:38:36.245Z,105.47
2023-02-16T01:41:27.241Z,106.23
2023-02-16T01:44:01.727Z,105.17
2023-02-16T01:46:40.005Z,107.40
2023-02-16T01:49:13.365Z,101.60
2023-02-16T01:54:29.144Z,99.50
2023-02-16T01:57:04.772Z,107.17
2023-02-16T01:59:41.455Z,111.07
2023-02-16T02:02:18.216Z,125.53
2023-02-16T02:05:15.290Z,119.57
2023-02-16T02:07:49.403Z,129.13
2023-02-16T02:10:24.134Z,122.25
2023-02-16T02:13:03.263Z,121.83
2023-02-16T02:15:35.220Z,114.10
2023-02-16T02:18:08.366Z,122.23
2023-02-16T02:21:08.279Z,106.80
2023-02-16T02:24:09.458Z,120.27
2023-02-16T02:27:04.711Z,114.23
2023-02-16T02:29:49.583Z,120.10
2023-02-16T02:32:29.514Z,110.77
2023-02-16T02:35:21.442Z,123.93
2023-02-16T02:37:58.720Z,120.13
2023-02-16T02:40:39.722Z,119.87
2023-02-16T02:43:15.207Z,126.57
2023-02-16T02:45:52.593Z,125.87
2023-02-16T02:48:21.529Z,121.20
2023-02-16T02:51:15.488Z,116.93
2023-02-16T02:53:50.196Z,122.37
2023-02-16T02:56:41.452Z,129.43
2023-02-16T02:59:29.922Z,113.87
2023-02-16T03:02:01.499Z,123.60
2023-02-16T03:04:34.882Z,113.63
2023-02-16T03:07:07.311Z,116.07
2023-02-16T03:09:36.284Z,115.50
2023-02-16T03:12:26.729Z,113.73
2023-02-16T03:14:59.927Z,120.63
2023-02-16T03:17:53.287Z,111.03
2023-02-16T03:20:41.075Z,118.17
2023-02-16T03:23:30.001Z,117.90
2023-02-16T03:26:18.269Z,117.17
2023-02-16T03:29:08.012Z,116.70
2023-02-16T03:31:38.755Z,115.97
2023-02-16T03:34:09.160Z,106.33
2023-02-16T03:36:41.931Z,106.87
2023-02-16T03:39:14.638Z,108.37
2023-02-16T03:41:49.487Z,107.57
2023-02-16T03:44:18.941Z,109.50
2023-02-16T03:46:49.927Z,118.10
2023-02-16T03:49:19.807Z,114.07
2023-02-16T03:51:49.892Z,116.07
2023-02-16T03:54:18.821Z,114.50
2023-02-16T03:56:50.676Z,115.50
2023-02-16T03:59:19.919Z,117.37
2023-02-16T04:01:49.502Z,115.80
2023-02-16T04:04:18.768Z,111.43
2023-02-16T04:06:50.620Z,105.03
2023-02-16T04:09:19.892Z,108.60
2023-02-16T04:12:10.842Z,107.60
2023-02-16T04:14:42.610Z,107.70
2023-02-16T04:17:13.374Z,102.93
2023-02-16T04:19:44.948Z,107.07
2023-02-16T04:22:15.882Z,110.17
2023-02-16T04:24:45.059Z,109.77
2023-02-16T04:27:16.015Z,109.67
2023-02-16T04:29:44.858Z,104.93
2023-02-16T04:32:23.238Z,99.87
2023-02-16T04:34:52.214Z,96.77
2023-02-16T04:37:22.592Z,98.97
2023-02-16T04:39:54.970Z,101.23
2023-02-16T04:42:24.577Z,104.10
2023-02-16T04:44:54.172Z,109.10
2023-02-16T04:47:28.597Z,101.80
2023-02-16T04:49:58.277Z,116.03
2023-02-16T04:52:31.032Z,100.43
2023-02-16T04:55:05.126Z,102.93
2023-02-16T04:57:37.079Z,102.50
2023-02-16T05:00:09.153Z,99.60
2023-02-16T05:02:38.186Z,99.00
2023-02-16T05:05:10.081Z,106.50
2023-02-16T05:07:41.763Z,104.67
2023-02-16T05:10:11.481Z,99.27
2023-02-16T05:13:02.258Z,110.07
2023-02-16T05:15:32.228Z,101.20
2023-02-16T05:18:01.993Z,97.13
2023-02-16T05:20:45.808Z,102.27
2023-02-16T05:23:16.062Z,109.87
2023-02-16T05:25:45.300Z,105.83
2023-02-16T05:28:18.141Z,103.63
2023-02-16T05:30:54.115Z,104.00
2023-02-16T05:33:26.439Z,97.50
2023-02-16T05:35:55.503Z,100.70
2023-02-16T05:38:28.388Z,113.77
2023-02-16T05:40:59.042Z,110.90
2023-02-16T05:43:28.331Z,107.03
2023-02-16T05:45:57.855Z,102.57
2023-02-16T05:48:27.568Z,104.90
2023-02-16T05:50:56.848Z,103.37
2023-02-16T05:53:26.613Z,98.73
2023-02-16T05:55:56.387Z,113.80
2023-02-16T05:58:25.630Z,114.85
2023-02-16T06:00:57.064Z,115.70
2023-02-16T06:03:26.776Z,110.13
2023-02-16T06:05:57.774Z,105.17
2023-02-16T06:08:28.042Z,106.87
2023-02-16T06:10:58.013Z,113.47
2023-02-16T06:13:27.859Z,112.03
2023-02-16T06:15:58.561Z,104.43
2023-02-16T06:18:28.371Z,121.33
2023-02-16T06:20:58.272Z,118.23
2023-02-16T06:23:28.353Z,115.50
2023-02-16T06:25:59.928Z,113.87
2023-02-16T06:28:32.026Z,112.73
2023-02-16T06:31:01.753Z,128.30
2023-02-16T06:33:31.248Z,119.33
2023-02-16T06:36:01.126Z,116.87
2023-02-16T06:38:30.918Z,130.87
2023-02-16T06:41:01.162Z,121.63
2023-02-16T06:43:33.620Z,113.20
2023-02-16T06:46:03.485Z,125.40
2023-02-16T06:48:32.772Z,120.83
2023-02-16T06:51:02.675Z,123.05
2023-02-16T06:53:32.361Z,115.10
2023-02-16T06:56:01.620Z,119.57
2023-02-16T06:58:31.902Z,112.40
2023-02-16T07:01:02.241Z,105.50
2023-02-16T07:03:32.044Z,116.67
2023-02-16T07:06:06.664Z,118.60
2023-02-16T07:08:37.374Z,113.67
2023-02-16T07:11:08.740Z,112.47
2023-02-16T07:13:38.488Z,109.60
2023-02-16T07:16:09.093Z,123.17
2023-02-16T07:18:38.713Z,119.70
2023-02-16T07:21:10.164Z,116.10
2023-02-16T07:23:40.583Z,121.77
2023-02-16T07:26:09.880Z,113.60
2023-02-16T07:28:40.295Z,117.50
2023-02-16T07:31:11.150Z,108.43
2023-02-16T07:33:43.167Z,119.47
2023-02-16T07:36:13.764Z,120.83
2023-02-16T07:38:43.425Z,119.17
2023-02-16T07:41:14.902Z,122.00
2023-02-16T07:43:56.790Z,110.43
2023-02-16T07:46:25.800Z,105.60
2023-02-16T07:48:54.964Z,110.10
2023-02-16T07:51:25.338Z,102.97
2023-02-16T07:53:55.866Z,103.03
2023-02-16T07:56:26.630Z,101.83
2023-02-16T07:58:57.296Z,101.73
2023-02-16T08:01:28.085Z,101.77
2023-02-16T08:03:57.690Z,98.53
2023-02-16T08:06:26.884Z,106.37
2023-02-16T08:08:56.621Z,102.57
2023-02-16T08:11:26.145Z,95.43
2023-02-16T08:13:55.258Z,101.27
2023-02-16T08:16:29.573Z,99.67
2023-02-16T08:19:00.244Z,94.10
2023-02-16T08:21:31.542Z,94.03
2023-02-16T08:24:04.225Z,84.90
2023-02-16T08:26:36.732Z,93.10
2023-02-16T08:29:09.746Z,91.50
2023-02-16T08:31:39.151Z,86.63
2023-02-16T08:34:10.141Z,84.93
2023-02-16T08:36:40.378Z,84.13
2023-02-16T08:39:12.394Z,92.80
2023-02-16T08:41:42.779Z,83.87
2023-02-16T08:44:12.982Z,75.90
2023-02-16T08:46:43.981Z,78.77
2023-02-16T08:49:14.120Z,82.03
2023-02-16T08:51:44.977Z,86.60
2023-02-16T08:56:49.251Z,70.97
2023-02-16T08:59:21.036Z,77.57
2023-02-16T09:01:51.148Z,77.50
2023-02-16T09:04:20.838Z,68.80
2023-02-16T09:06:53.459Z,70.77
2023-02-16T09:09:23.134Z,73.47
2023-02-16T09:11:52.124Z,75.00
2023-02-16T09:14:22.634Z,64.40
2023-02-16T09:16:52.370Z,76.23
2023-02-16T09:19:22.167Z,76.80
2023-02-16T09:21:51.454Z,72.27
2023-02-16T09:24:21.540Z,72.17
2023-02-16T09:26:52.566Z,76.93
2023-02-16T09:29:22.518Z,67.53
2023-02-16T09:31:51.820Z,66.10
2023-02-16T09:34:23.193Z,65.73
2023-02-16T09:36:52.646Z,65.23
2023-02-16T09:39:21.507Z,69.80
2023-02-16T09:42:21.980Z,66.67
2023-02-16T09:45:03.164Z,61.73
2023-02-16T09:47:36.641Z,61.93
2023-02-16T09:50:13.454Z,67.87
2023-02-16T09:52:52.260Z,61.87
2023-02-16T09:55:25.501Z,63.07
2023-02-16T09:58:05.735Z,63.47
2023-02-16T10:00:49.121Z,54.23
2023-02-16T10:03:38.406Z,62.53
2023-02-16T10:06:30.979Z,60.33
2023-02-16T10:09:05.110Z,56.30
2023-02-16T10:11:41.399Z,60.83
2023-02-16T10:14:20.510Z,61.27
2023-02-16T10:16:56.432Z,65.03
2023-02-16T10:19:29.644Z,57.37
2023-02-16T10:22:07.405Z,54.43
2023-02-16T10:24:44.928Z,56.10
2023-02-16T10:27:16.295Z,57.23
2023-02-16T10:29:48.311Z,53.20
2023-02-16T10:32:28.555Z,54.47
2023-02-16T10:35:14.672Z,62.60
2023-02-16T10:37:57.524Z,62.45
2023-02-16T10:40:36.518Z,55.97
2023-02-16T10:43:14.231Z,62.30
2023-02-16T10:45:51.934Z,56.47
2023-02-16T10:48:23.756Z,59.75
2023-02-16T10:50:58.962Z,59.73
2023-02-16T10:53:39.498Z,58.23
2023-02-16T10:56:41.157Z,57.67
2023-02-16T10:59:17.835Z,57.47
2023-02-16T11:01:51.633Z,57.30
2023-02-16T11:04:39.290Z,57.30
2023-02-16T11:07:12.755Z,58.43
2023-02-16T11:09:43.978Z,52.95
2023-02-16T11:12:30.514Z,51.20
2023-02-16T11:15:06.156Z,54.90
2023-02-16T11:17:50.773Z,55.90
2023-02-16T11:20:30.842Z,55.00
2023-02-16T11:23:23.214Z,54.87
2023-02-16T11:26:02.476Z,57.70
2023-02-16T11:28:35.424Z,59.43
2023-02-16T11:31:18.712Z,51.60
2023-02-16T11:34:01.341Z,57.13
2023-02-16T11:36:35.737Z,50.67
2023-02-16T11:41:37.896Z,50.13
2023-02-16T11:44:24.788Z,54.70
2023-02-16T11:46:56.673Z,54.50
2023-02-16T11:49:37.062Z,55.07
2023-02-16T11:52:25.784Z,51.83
2023-02-16T11:54:57.689Z,54.37
2023-02-16T11:57:33.354Z,53.70
2023-02-16T12:00:15.676Z,50.53
2023-02-16T12:03:09.675Z,57.67
2023-02-16T12:05:58.008Z,48.87
2023-02-16T12:08:42.712Z,46.27
2023-02-16T12:11:26.053Z,50.83
2023-02-16T12:14:22.113Z,44.13
2023-02-16T12:16:59.936Z,54.93
2023-02-16T12:19:40.601Z,51.20
2023-02-16T12:22:25.510Z,47.37
2023-02-16T12:25:05.239Z,49.03
2023-02-16T12:27:55.748Z,49.23
2023-02-16T12:31:04.889Z,48.67
2023-02-16T12:33:49.565Z,50.50
2023-02-16T12:36:40.328Z,46.37
2023-02-16T12:39:19.144Z,51.17
2023-02-16T12:42:04.302Z,46.03
2023-02-16T12:44:42.334Z,48.70
2023-02-16T12:47:17.684Z,45.40
2023-02-16T12:50:00.916Z,47.10
2023-02-16T12:52:39.717Z,46.57
2023-02-16T12:55:21.605Z,47.80
2023-02-16T12:58:01.966Z,45.37
2023-02-16T13:00:43.229Z,54.93
2023-02-16T13:03:31.831Z,48.70
2023-02-16T13:06:15.307Z,45.97
2023-02-16T13:09:03.535Z,50.63
2023-02-16T13:11:38.273Z,49.57
2023-02-16T13:14:17.675Z,47.30
2023-02-16T13:16:53.750Z,50.40
2023-02-16T13:19:23.044Z,50.03
2023-02-16T14:14:30.689Z,61.63
2023-02-16T14:17:17.196Z,63.00
2023-02-16T14:19:55.109Z,66.37
2023-02-16T14:22:30.739Z,59.13
2023-02-16T14:25:03.220Z,60.83
2023-02-16T14:27:45.113Z,63.50
2023-02-16T14:30:23.694Z,71.60
2023-02-16T14:32:59.864Z,65.93
2023-02-16T14:35:33.449Z,62.40
2023-02-16T14:38:04.134Z,63.28
2023-02-16T14:40:52.478Z,69.23
2023-02-16T14:43:30.494Z,67.17
2023-02-16T14:46:16.556Z,68.50
2023-02-16T14:49:19.853Z,64.53
2023-02-16T14:52:08.863Z,66.83
2023-02-16T14:55:22.858Z,60.80
2023-02-16T14:58:00.370Z,66.73
2023-02-16T15:00:41.524Z,69.53
2023-02-16T15:03:18.073Z,69.03
2023-02-16T15:05:57.730Z,65.30
2023-02-16T15:08:35.377Z,64.57
2023-02-16T15:11:16.206Z,66.50
2023-02-16T15:13:52.970Z,62.83
2023-02-16T15:16:24.233Z,73.87
2023-02-16T15:18:56.316Z,64.27
2023-02-16T15:21:30.890Z,69.97
2023-02-16T15:24:01.904Z,67.97
2023-02-16T15:26:34.935Z,66.75
2023-02-16T15:29:26.475Z,67.43
2023-02-16T15:31:58.432Z,70.40
2023-02-16T15:34:32.832Z,71.43
2023-02-16T15:39:48.368Z,63.63
2023-02-16T15:42:27.542Z,66.20
2023-02-16T15:44:57.605Z,65.80
2023-02-16T15:47:28.832Z,72.63
2023-02-16T15:50:11.569Z,78.55
2023-02-16T15:52:41.098Z,88.33
2023-02-16T15:55:12.463Z,78.20
2023-02-16T15:57:41.768Z,80.90
2023-02-16T16:00:18.755Z,85.57
2023-02-16T16:02:51.704Z,95.70
2023-02-16T16:05:26.018Z,97.63
2023-02-16T16:10:28.302Z,82.43
2023-02-16T16:13:00.928Z,82.00
2023-02-16T16:15:40.320Z,77.97
2023-02-16T16:18:38.603Z,90.13
2023-02-16T16:21:17.133Z,82.03
2023-02-16T16:23:58.649Z,73.03
2023-02-16T16:26:30.060Z,80.43
2023-02-16T16:28:59.817Z,73.30
2023-02-16T16:31:43.060Z,77.13
2023-02-16T16:34:32.253Z,84.90
2023-02-16T16:37:03.454Z,73.87
2023-02-16T16:39:34.245Z,77.27
2023-02-16T16:42:21.838Z,81.47
2023-02-16T16:45:33.542Z,79.70
2023-02-16T16:48:08.262Z,73.17
2023-02-16T16:50:39.850Z,71.77
2023-02-16T16:53:39.121Z,75.57
2023-02-16T16:56:13.478Z,71.77
2023-02-16T16:58:42.595Z,74.93
2023-02-16T17:01:13.180Z,79.13
2023-02-16T17:03:42.985Z,75.80
2023-02-16T17:06:13.536Z,89.70
2023-02-16T17:08:42.522Z,83.90
2023-02-16T17:11:18.790Z,83.77
2023-02-16T17:13:51.511Z,79.57
2023-02-16T17:16:24.375Z,83.83
2023-02-16T17:18:56.798Z,114.27
2023-02-16T17:21:25.727Z,95.17
2023-02-16T17:23:54.658Z,95.33
2023-02-16T17:26:23.680Z,94.97
2023-02-16T17:28:53.039Z,96.20
2023-02-16T17:31:22.024Z,84.97
2023-02-16T17:33:51.122Z,87.27
2023-02-16T17:36:24.366Z,91.57
2023-02-16T17:38:54.533Z,95.53
2023-02-16T17:41:26.326Z,94.00
2023-02-16T17:43:56.527Z,124.70
2023-02-16T17:46:27.797Z,130.40
2023-02-16T17:48:57.074Z,110.97
2023-02-16T17:51:26.697Z,112.73
2023-02-16T17:53:55.607Z,121.47
2023-02-16T17:56:25.801Z,116.23
2023-02-16T17:58:54.659Z,108.13
2023-02-16T18:01:23.662Z,97.70
2023-02-16T18:03:53.194Z,100.40
2023-02-16T18:06:26.386Z,100.93
2023-02-16T18:08:57.305Z,89.83
2023-02-16T18:11:28.556Z,86.33
2023-02-16T18:13:57.837Z,85.67
2023-02-16T18:16:27.904Z,94.70
2023-02-16T18:18:57.797Z,93.60
2023-02-16T18:21:26.900Z,92.73
2023-02-16T18:23:55.836Z,100.53
2023-02-16T18:26:25.137Z,95.67
2023-02-16T18:28:55.543Z,87.03
2023-02-16T18:31:24.706Z,86.45
2023-02-16T18:33:53.693Z,98.03
2023-02-16T18:36:23.161Z,92.33
2023-02-16T18:38:51.986Z,97.67
2023-02-16T18:41:21.596Z,101.50
2023-02-16T18:43:52.876Z,89.87
2023-02-16T18:46:22.258Z,88.80
2023-02-16T18:48:53.411Z,85.63
2023-02-16T18:51:25.579Z,85.97
2023-02-16T18:53:54.525Z,92.57
2023-02-16T18:56:24.914Z,93.47
2023-02-16T18:58:53.864Z,92.17
2023-02-16T19:01:32.306Z,88.80
2023-02-16T19:04:05.138Z,86.30
2023-02-16T19:06:37.620Z,87.20
2023-02-16T19:09:07.020Z,86.10
2023-02-16T19:11:36.255Z,82.17
2023-02-16T19:14:05.836Z,88.73
2023-02-16T19:16:36.345Z,85.20
2023-02-16T19:19:09.602Z,85.60
2023-02-16T19:21:39.939Z,86.97
2023-02-16T19:24:11.137Z,91.60
2023-02-16T19:26:40.784Z,86.60
2023-02-16T19:29:09.747Z,80.90
2023-02-16T19:31:41.926Z,89.53
2023-02-16T19:34:11.334Z,81.83
2023-02-16T19:36:40.942Z,77.30
2023-02-16T19:39:12.333Z,75.57
2023-02-16T19:41:42.989Z,75.40
2023-02-16T19:44:14.000Z,86.93
2023-02-16T19:46:44.431Z,76.53
2023-02-16T19:49:16.692Z,74.83
2023-02-16T19:51:48.439Z,80.33
2023-02-16T19:54:18.969Z,78.25
2023-02-16T19:56:49.640Z,72.20
2023-02-16T19:59:19.165Z,78.30
2023-02-16T20:01:50.322Z,82.60
2023-02-16T20:04:19.426Z,76.43
2023-02-16T20:06:49.770Z,73.83
2023-02-16T20:09:18.705Z,84.37
2023-02-16T20:11:50.800Z,84.40
2023-02-16T20:14:20.061Z,80.83
2023-02-16T20:16:51.596Z,78.33
2023-02-16T20:19:21.489Z,74.27
2023-02-16T20:21:52.665Z,80.20
2023-02-16T20:24:21.914Z,82.60
2023-02-16T20:26:53.588Z,75.00
2023-02-16T20:29:25.030Z,76.90
2023-02-16T20:31:56.965Z,73.97
2023-02-16T20:34:27.457Z,78.80
2023-02-16T20:36:57.073Z,77.73
2023-02-16T20:39:30.024Z,85.63
2023-02-16T20:41:59.352Z,81.50
2023-02-16T20:44:28.615Z,78.87
2023-02-16T20:46:57.952Z,78.30
2023-02-16T20:49:28.955Z,83.63
2023-02-16T20:52:12.413Z,79.73
2023-02-16T20:54:42.453Z,83.63
2023-02-16T20:57:25.646Z,77.80
2023-02-16T20:59:57.298Z,81.53
2023-02-16T21:02:26.956Z,80.77
2023-02-16T21:04:58.035Z,89.73
2023-02-16T21:07:28.906Z,79.33
2023-02-16T21:09:58.829Z,89.20
2023-02-16T21:12:28.758Z,75.10
2023-02-16T21:14:58.338Z,73.80
2023-02-16T21:17:29.704Z,76.60
2023-02-16T21:19:59.065Z,77.60
2023-02-16T21:22:31.522Z,86.77
2023-02-16T21:25:03.807Z,75.33
2023-02-16T21:27:37.465Z,69.93
2023-02-16T21:30:08.626Z,81.95
2023-02-16T21:32:38.567Z,84.67
2023-02-16T21:35:10.563Z,84.20
2023-02-16T21:37:40.483Z,77.70
2023-02-16T21:40:31.728Z,85.23
2023-02-16T21:43:00.954Z,80.53
2023-02-16T21:45:30.215Z,91.07
2023-02-16T21:48:17.951Z,85.70
2023-02-16T21:50:51.848Z,90.13
2023-02-16T21:53:21.416Z,86.47
2023-02-16T21:56:09.676Z,86.87
2023-02-16T21:58:39.067Z,83.03
2023-02-16T22:01:08.077Z,81.67
2023-02-16T22:03:37.780Z,76.67
2023-02-16T22:06:08.241Z,86.00
2023-02-16T22:08:38.033Z,79.10
2023-02-16T22:11:13.737Z,81.60
2023-02-16T22:13:48.424Z,82.97
2023-02-16T22:16:22.517Z,80.83
2023-02-16T22:18:57.446Z,80.17
2023-02-16T22:21:27.072Z,78.37
2023-02-16T22:23:57.269Z,82.03
2023-02-16T22:26:28.460Z,81.50
2023-02-16T22:29:08.150Z,74.97
2023-02-16T22:31:38.405Z,81.27
2023-02-16T22:34:18.496Z,82.53
2023-02-16T22:36:51.693Z,83.67
2023-02-16T22:39:23.960Z,77.87
2023-02-16T22:41:53.136Z,82.73
2023-02-16T22:44:22.380Z,87.73
2023-02-16T22:46:52.025Z,84.33
2023-02-16T22:49:23.465Z,77.80
2023-02-16T22:51:53.728Z,80.70
2023-02-16T22:54:24.233Z,87.77
2023-02-16T22:56:53.527Z,80.65
2023-02-16T22:59:22.959Z,81.13
2023-02-16T23:01:55.067Z,83.93
2023-02-16T23:04:26.135Z,93.77
2023-02-16T23:06:55.361Z,85.60
2023-02-16T23:09:24.622Z,87.17
2023-02-16T23:11:53.814Z,90.10
2023-02-16T23:14:26.950Z,83.33
2023-02-16T23:16:57.006Z,92.70
2023-02-16T23:19:27.050Z,87.30
2023-02-16T23:21:56.640Z,84.27
2023-02-16T23:24:25.677Z,88.13
2023-02-16T23:26:57.191Z,85.03
2023-02-16T23:29:27.107Z,85.00
2023-02-16T23:31:56.114Z,82.13
2023-02-16T23:34:25.071Z,89.23
2023-02-16T23:36:54.889Z,86.03
2023-02-16T23:39:24.183Z,85.37
2023-02-16T23:41:53.873Z,85.93
2023-02-16T23:44:23.115Z,84.30
2023-02-16T23:46:52.054Z,89.30
2023-02-16T23:49:21.396Z,88.90
2023-02-16T23:51:51.007Z,85.10
2023-02-16T23:54:19.899Z,89.80
2023-02-16T23:56:52.871Z,87.70
2023-02-16T23:59:23.258Z,80.83
